PWSweather.com
Personal Weather Stations
Station Observations
CALONGE
CalongeES 17251

CalongeES 17251

Lat: 41.85972222, Lon: 3.077777778

Elevation: 16

Station Type: Oregon WMR928N

Latest ConditionsUpdated 5:00:01 AM GMT+01:01 Wednesday, Aug 21, 2019
Currently Today's Max Today's Min Today's Average
Temperature 68.5°F20.3°C 70.9°F21.6°C 68.5°F20.3°C 69.8°F21.0°C
Dew Point 43.9°F6.6°C 45.3°F7.4°C 39.5°F4.2°C 43.1°F6.2°C
Winds 7.6 mph NW12.2 kmh NW 13.8 mph -22.2 kmh - - 7.0 mph 11.3 kmh
Wind Gusts 10.0 mph16.1 kmh 25.2 mph40.6 kmh - -
Humidity 41% 42% 33% 38%
Pressure 30.09 in1019.0 mb 30.12 in1020.0 mb 30.07 in1018.3 mb -
Hour Temp Dew Point Humidity Winds Wind Gusts Pressure Precip Precip Rate Daily Precip Total
05:00 AM 68.5°F20.3°C 43.9°F6.6°C 41% 7.6 mph NW12.2 kmh NW 10.0 mph16.1 kmh 30.09 in1019.0 mb 0.00 in0.0 mm 0.00 in0.0 mm 0.00 in0.0 mm
04:45 AM 68.9°F20.5°C 44.2°F6.8°C 41% 7.0 mph NW11.3 kmh NW 13.2 mph21.2 kmh 30.09 in1019.0 mb 0.00 in0.0 mm 0.00 in0.0 mm 0.00 in0.0 mm
04:30 AM 69.1°F20.6°C 44.4°F6.9°C 41% 8.2 mph NW13.2 kmh NW 11.4 mph18.3 kmh 30.09 in1019.0 mb 0.00 in0.0 mm 0.00 in0.0 mm 0.00 in0.0 mm
04:15 AM 69.3°F20.7°C 45.2°F7.3°C 42% 9.4 mph NW15.1 kmh NW 16.7 mph26.9 kmh 30.09 in1019.0 mb 0.00 in0.0 mm 0.00 in0.0 mm 0.00 in0.0 mm
04:00 AM 69.6°F20.9°C 44.9°F7.2°C 41% 6.4 mph WNW10.3 kmh WNW 13.8 mph22.2 kmh 30.09 in1019.0 mb 0.00 in0.0 mm 0.00 in0.0 mm 0.00 in0.0 mm
03:45 AM 70.0°F21.1°C 44.5°F6.9°C 40% 11.4 mph WNW18.3 kmh WNW 16.7 mph26.9 kmh 30.09 in1019.0 mb 0.00 in0.0 mm 0.00 in0.0 mm 0.00 in0.0 mm
03:30 AM 70.5°F21.4°C 43.7°F6.5°C 38% 8.8 mph NW14.2 kmh NW 17.3 mph27.8 kmh 30.07 in1018.3 mb 0.00 in0.0 mm 0.00 in0.0 mm 0.00 in0.0 mm
03:15 AM 70.9°F21.6°C 43.3°F6.3°C 37% 10.5 mph NNW16.9 kmh NNW 20.2 mph32.5 kmh 30.07 in1018.3 mb 0.00 in0.0 mm 0.00 in0.0 mm 0.00 in0.0 mm
03:00 AM 70.9°F21.6°C 43.3°F6.3°C 37% 13.8 mph NNW22.2 kmh NNW 25.2 mph40.6 kmh 30.09 in1019.0 mb 0.00 in0.0 mm 0.00 in0.0 mm 0.00 in0.0 mm
02:45 AM 70.3°F21.3°C 44.2°F6.8°C 39% 10.5 mph NNW16.9 kmh NNW 17.3 mph27.8 kmh 30.09 in1019.0 mb 0.00 in0.0 mm 0.00 in0.0 mm 0.00 in0.0 mm
02:30 AM 69.4°F20.8°C 45.3°F7.4°C 42% 7.0 mph NW11.3 kmh NW 11.4 mph18.3 kmh 30.09 in1019.0 mb 0.00 in0.0 mm 0.00 in0.0 mm 0.00 in0.0 mm
02:15 AM 69.4°F20.8°C 45.3°F7.4°C 42% 5.9 mph NNW9.5 kmh NNW 11.4 mph18.3 kmh 30.09 in1019.0 mb 0.00 in0.0 mm 0.00 in0.0 mm 0.00 in0.0 mm
02:00 AM 69.6°F20.9°C 44.9°F7.2°C 41% 10.5 mph NNW16.9 kmh NNW 16.1 mph25.9 kmh 30.09 in1019.0 mb 0.00 in0.0 mm 0.00 in0.0 mm 0.00 in0.0 mm
01:45 AM 69.6°F20.9°C 43.6°F6.4°C 39% 8.8 mph NNW14.2 kmh NNW 13.8 mph22.2 kmh 30.09 in1019.0 mb 0.00 in0.0 mm 0.00 in0.0 mm 0.00 in0.0 mm
01:30 AM 69.8°F21.0°C 41.6°F5.3°C 36% 2.9 mph N4.7 kmh N 11.4 mph18.3 kmh 30.12 in1020.0 mb 0.00 in0.0 mm 0.00 in0.0 mm 0.00 in0.0 mm
01:15 AM 69.8°F21.0°C 40.9°F4.9°C 35% 5.9 mph N9.5 kmh N 10.5 mph16.9 kmh 30.12 in1020.0 mb 0.00 in0.0 mm 0.00 in0.0 mm 0.00 in0.0 mm
01:00 AM 70.2°F21.2°C 40.5°F4.7°C 34% 4.1 mph NW6.6 kmh NW 8.2 mph13.2 kmh 30.12 in1020.0 mb 0.00 in0.0 mm 0.00 in0.0 mm 0.00 in0.0 mm
12:45 AM 70.2°F21.2°C 40.5°F4.7°C 34% 5.3 mph NNW8.5 kmh NNW 8.2 mph13.2 kmh 30.12 in1020.0 mb 0.00 in0.0 mm 0.00 in0.0 mm 0.00 in0.0 mm
12:30 AM 70.3°F21.3°C 40.6°F4.8°C 34% 2.9 mph NNW4.7 kmh NNW 8.2 mph13.2 kmh 30.12 in1020.0 mb 0.00 in0.0 mm 0.00 in0.0 mm 0.00 in0.0 mm
12:15 AM 70.0°F21.1°C 39.5°F4.2°C 33% Calm Calm 5.3 mph8.5 kmh 30.12 in1020.0 mb 0.00 in0.0 mm 0.00 in0.0 mm 0.00 in0.0 mm
12:00 AM 70.3°F21.3°C 39.9°F4.4°C 33% Calm Calm -- 30.12 in1020.0 mb 0.00 in0.0 mm 0.00 in0.0 mm 0.00 in0.0 mm